Etusivu
METAR-TAF:

METAR-TAF

Lentoasemat :

Dijon, Ranska

Leveyspiiri: 47-16N, Pituuspiiri: 005-05E, korkeus merenpinnasta: 222 m

Tämänhetkinen sää

Tämä raportti tehtiin 38 minuuttia sitten, kello 03.00 UTC
Tuuli 5 kn pohjoisesta/koillisesta
Lämpötila 2°C
Kosteus 93%
Ilmanpaine 1024 hPa
Näkyvyys 10 km tai enemmän
ei pilviä alle 1500 m:ssä eikä cumulonimbus-pilviä

METAR: LFSD 190300Z AUTO 02005KT CAVOK 02/01 Q1024

Aika: 04:38 (03:38 UTC)


TAF: puuttuu

Säähavainnot ja -ennusteet yli 4000 lentoasemalta (METAR- ja TAF-raportit).

Käytössä olevat sääasemat on merkitty karttaan keltaisilla ja punaisilla pisteillä.

Aseta hiiri pisteen päälle nähdäksesi sääaseman nimen.

Klikkaa sitten nähdäksesi säähavainnot ja -ennusteet.

Kartan vaihtaminen: klikkaa mustalla rastilla varustettuja vihreitä pisteitä, niin voit zoomata sisään; viivalla varustettua vihreää pistettä, niin voit zoomata ulos tai vihreitä nuolia, niin pääset viereisille kartoille.


METAR-TAF: